createdAt,value
2019-02-21T00:01:15.156Z,3.80
2019-02-21T00:03:43.204Z,3.80
2019-02-21T00:06:13.003Z,3.80
2019-02-21T00:08:41.479Z,3.80
2019-02-21T00:11:13.666Z,3.70
2019-02-21T00:13:44.600Z,3.70
2019-02-21T00:16:13.562Z,3.70
2019-02-21T00:18:41.852Z,3.70
2019-02-21T00:21:10.439Z,3.70
2019-02-21T00:23:38.595Z,3.60
2019-02-21T00:26:07.743Z,3.60
2019-02-21T00:28:36.150Z,3.60
2019-02-21T00:31:04.187Z,3.60
2019-02-21T00:33:32.283Z,3.60
2019-02-21T00:36:03.257Z,3.60
2019-02-21T00:38:33.820Z,3.50
2019-02-21T00:41:01.850Z,3.50
2019-02-21T00:43:31.545Z,3.60
2019-02-21T00:46:02.411Z,3.50
2019-02-21T00:48:30.555Z,3.50
2019-02-21T00:50:59.037Z,3.60
2019-02-21T00:53:27.205Z,3.40
2019-02-21T00:55:55.361Z,3.30
2019-02-21T00:58:23.913Z,3.30
2019-02-21T01:00:52.051Z,3.30
2019-02-21T01:03:20.445Z,3.30
2019-02-21T01:05:48.935Z,3.30
2019-02-21T01:08:17.079Z,3.40
2019-02-21T01:10:44.993Z,3.40
2019-02-21T01:13:13.223Z,3.40
2019-02-21T01:15:41.208Z,3.30
2019-02-21T01:18:09.349Z,3.30
2019-02-21T01:20:37.411Z,3.30
2019-02-21T01:23:05.833Z,3.30
2019-02-21T01:25:34.825Z,3.30
2019-02-21T01:28:03.166Z,3.30
2019-02-21T01:30:31.368Z,3.30
2019-02-21T01:32:59.399Z,3.20
2019-02-21T01:35:27.528Z,3.30
2019-02-21T01:37:55.540Z,3.30
2019-02-21T01:40:23.576Z,3.30
2019-02-21T01:42:52.092Z,3.20
2019-02-21T01:45:20.009Z,3.20
2019-02-21T01:47:51.171Z,3.20
2019-02-21T01:50:19.476Z,3.20
2019-02-21T01:52:47.305Z,3.30
2019-02-21T01:55:15.421Z,3.20
2019-02-21T01:57:44.136Z,3.20
2019-02-21T02:00:12.328Z,3.10
2019-02-21T02:02:40.313Z,3.10
2019-02-21T02:05:08.710Z,3.00
2019-02-21T02:07:37.360Z,2.90
2019-02-21T02:10:06.119Z,3.00
2019-02-21T02:12:34.162Z,3.00
2019-02-21T02:15:02.538Z,2.90
2019-02-21T02:17:30.675Z,3.00
2019-02-21T02:19:59.072Z,3.00
2019-02-21T02:22:26.871Z,3.00
2019-02-21T02:24:54.927Z,3.00
2019-02-21T02:27:23.287Z,2.90
2019-02-21T02:29:51.317Z,2.90
2019-02-21T02:32:19.526Z,2.90
2019-02-21T02:34:48.876Z,2.70
2019-02-21T02:37:17.309Z,2.60
2019-02-21T02:39:45.992Z,2.60
2019-02-21T02:42:14.246Z,2.60
2019-02-21T02:44:42.635Z,2.60
2019-02-21T02:47:10.806Z,2.60
2019-02-21T02:49:39.044Z,2.60
2019-02-21T02:52:07.069Z,2.50
2019-02-21T02:54:35.193Z,2.50
2019-02-21T02:57:08.514Z,2.40
2019-02-21T02:59:40.716Z,2.40
2019-02-21T03:02:06.663Z,2.30
2019-02-21T03:04:35.042Z,2.30
2019-02-21T03:07:02.960Z,2.30
2019-02-21T03:09:31.027Z,2.40
2019-02-21T03:11:59.313Z,2.30
2019-02-21T03:14:33.384Z,2.30
2019-02-21T03:17:04.729Z,2.30
2019-02-21T03:19:32.692Z,2.20
2019-02-21T03:22:00.900Z,2.20
2019-02-21T03:24:33.079Z,2.10
2019-02-21T03:27:01.531Z,2.10
2019-02-21T03:29:29.693Z,2.10
2019-02-21T03:31:58.193Z,2.10
2019-02-21T03:34:29.576Z,2.10
2019-02-21T03:36:57.847Z,2.10
2019-02-21T03:39:26.321Z,2.10
2019-02-21T03:41:54.775Z,2.10
2019-02-21T03:44:23.032Z,2.00
2019-02-21T03:46:54.053Z,2.00
2019-02-21T03:49:22.060Z,2.00
2019-02-21T03:51:50.109Z,2.00
2019-02-21T03:54:18.535Z,2.20
2019-02-21T03:56:46.625Z,2.30
2019-02-21T03:59:15.047Z,2.20
2019-02-21T04:01:43.185Z,2.20
2019-02-21T04:04:14.046Z,2.20
2019-02-21T04:06:42.389Z,2.20
2019-02-21T04:09:10.848Z,2.20
2019-02-21T04:11:43.161Z,2.20
2019-02-21T04:14:12.056Z,2.20
2019-02-21T04:16:40.611Z,2.20
2019-02-21T04:19:08.721Z,2.30
2019-02-21T04:21:36.873Z,2.30
2019-02-21T04:24:05.155Z,2.30
2019-02-21T04:26:33.351Z,2.30
2019-02-21T04:29:01.624Z,2.30
2019-02-21T04:31:31.482Z,2.40
2019-02-21T04:34:00.068Z,2.40
2019-02-21T04:36:29.771Z,2.40
2019-02-21T04:38:58.175Z,2.40
2019-02-21T04:41:26.328Z,2.50
2019-02-21T04:43:54.657Z,2.50
2019-02-21T04:46:22.865Z,2.60
2019-02-21T04:48:51.372Z,2.60
2019-02-21T04:51:19.549Z,2.70
2019-02-21T04:53:50.955Z,2.70
2019-02-21T04:56:18.855Z,2.70
2019-02-21T04:58:49.101Z,2.70
2019-02-21T05:01:17.148Z,2.70
2019-02-21T05:03:45.106Z,2.40
2019-02-21T05:06:13.383Z,2.30
2019-02-21T05:08:41.931Z,2.30
2019-02-21T05:11:10.124Z,2.40
2019-02-21T05:13:38.361Z,2.40
2019-02-21T05:16:06.763Z,2.40
2019-02-21T05:18:35.073Z,2.50
2019-02-21T05:21:03.310Z,2.50
2019-02-21T05:23:31.724Z,2.60
2019-02-21T05:26:00.454Z,2.50
2019-02-21T05:32:03.153Z,2.70
2019-02-21T05:34:52.136Z,2.80
2019-02-21T05:37:37.214Z,2.80
2019-02-21T05:40:25.243Z,2.80
2019-02-21T05:43:06.584Z,2.80
2019-02-21T05:46:07.214Z,2.60
2019-02-21T05:48:55.836Z,2.60
2019-02-21T05:51:41.650Z,2.70
2019-02-21T05:54:40.952Z,2.70
2019-02-21T05:57:19.600Z,2.80
2019-02-21T06:00:20.076Z,2.90
2019-02-21T06:03:18.237Z,2.90
2019-02-21T06:05:57.034Z,2.90
2019-02-21T06:08:40.129Z,2.70
2019-02-21T06:11:28.268Z,2.70
2019-02-21T06:14:17.936Z,2.70
2019-02-21T06:17:18.090Z,2.80
2019-02-21T06:19:51.651Z,3.00
2019-02-21T06:22:32.272Z,3.20
2019-02-21T06:25:10.581Z,3.30
2019-02-21T06:28:17.155Z,3.40
2019-02-21T06:30:50.226Z,3.40
2019-02-21T06:33:30.977Z,3.50
2019-02-21T06:36:27.021Z,3.60
2019-02-21T06:38:55.254Z,3.70
2019-02-21T06:41:31.768Z,3.70
2019-02-21T06:44:00.973Z,3.80
2019-02-21T06:46:30.848Z,3.90
2019-02-21T06:49:18.740Z,3.90
2019-02-21T06:52:00.321Z,4.00
2019-02-21T06:54:29.748Z,4.10
2019-02-21T06:56:57.907Z,4.20
2019-02-21T06:59:26.713Z,4.20
2019-02-21T07:02:05.251Z,4.30
2019-02-21T07:04:42.328Z,4.30
2019-02-21T07:07:11.154Z,4.40
2019-02-21T07:09:39.412Z,4.40
2019-02-21T07:12:07.602Z,4.50
2019-02-21T07:14:56.728Z,4.50
2019-02-21T07:17:27.259Z,4.50
2019-02-21T07:20:39.807Z,4.50
2019-02-21T07:23:07.716Z,4.50
2019-02-21T07:25:40.024Z,4.60
2019-02-21T07:28:11.816Z,4.60
2019-02-21T07:30:38.312Z,4.60
2019-02-21T07:33:27.790Z,4.70
2019-02-21T07:36:04.109Z,4.60
2019-02-21T07:38:41.954Z,4.70
2019-02-21T07:41:18.780Z,4.70
2019-02-21T07:43:50.492Z,4.80
2019-02-21T07:46:19.463Z,4.90
2019-02-21T07:48:48.944Z,5.00
2019-02-21T07:51:32.177Z,5.10
2019-02-21T07:54:01.992Z,5.20
2019-02-21T08:00:21.968Z,5.20
2019-02-21T08:02:53.957Z,5.20
2019-02-21T08:05:35.907Z,5.20
2019-02-21T08:08:09.309Z,5.30
2019-02-21T08:10:37.570Z,5.30
2019-02-21T08:13:22.536Z,5.30
2019-02-21T08:16:26.445Z,5.30
2019-02-21T08:18:56.340Z,5.40
2019-02-21T08:21:37.742Z,5.50
2019-02-21T08:24:11.413Z,5.60
2019-02-21T08:26:39.558Z,5.60
2019-02-21T08:29:21.001Z,5.60
2019-02-21T08:32:07.681Z,5.70
2019-02-21T08:39:01.923Z,5.70
2019-02-21T08:41:32.463Z,5.60
2019-02-21T08:44:06.660Z,5.60
2019-02-21T08:47:07.382Z,5.60
2019-02-21T08:50:05.350Z,5.70
2019-02-21T08:52:37.616Z,5.70
2019-02-21T08:55:13.374Z,5.90
2019-02-21T09:04:30.903Z,6.10
2019-02-21T09:07:01.891Z,6.10
2019-02-21T09:09:43.860Z,6.30
2019-02-21T09:12:40.975Z,6.30
2019-02-21T09:18:38.443Z,6.30
2019-02-21T09:21:47.912Z,6.40
2019-02-21T09:24:39.176Z,6.70
2019-02-21T09:27:05.501Z,6.60
2019-02-21T09:29:40.000Z,6.70
2019-02-21T09:32:10.242Z,6.60
2019-02-21T09:35:24.377Z,6.60
2019-02-21T09:38:35.352Z,6.60
2019-02-21T09:41:17.557Z,6.60
2019-02-21T09:43:51.280Z,6.90
2019-02-21T09:46:43.852Z,6.80
2019-02-21T09:49:57.976Z,6.90
2019-02-21T09:52:52.777Z,7.00
2019-02-21T09:55:25.091Z,7.00
2019-02-21T09:58:15.238Z,7.10
2019-02-21T10:01:22.265Z,7.30
2019-02-21T10:04:20.238Z,7.00
2019-02-21T10:06:51.722Z,7.30
2019-02-21T10:09:20.234Z,7.30
2019-02-21T10:11:51.255Z,7.40
2019-02-21T10:14:28.129Z,7.70
2019-02-21T10:17:10.706Z,7.50
2019-02-21T10:20:33.011Z,7.80
2019-02-21T10:23:45.989Z,7.80
2019-02-21T10:26:22.722Z,8.10
2019-02-21T10:28:51.046Z,8.10
2019-02-21T10:31:19.162Z,8.30
2019-02-21T10:34:27.736Z,8.30
2019-02-21T10:36:57.291Z,8.30
2019-02-21T10:39:30.181Z,8.40
2019-02-21T10:46:46.567Z,8.50
2019-02-21T10:49:28.335Z,8.50
2019-02-21T10:52:11.349Z,8.50
2019-02-21T10:54:47.394Z,8.50
2019-02-21T10:57:39.385Z,8.60
2019-02-21T11:00:38.560Z,8.50
2019-02-21T11:03:40.596Z,8.60
2019-02-21T11:06:21.413Z,8.80
2019-02-21T11:09:36.244Z,8.90
2019-02-21T11:13:01.944Z,9.10
2019-02-21T11:15:49.046Z,9.10
2019-02-21T11:18:43.529Z,9.20
2019-02-21T11:21:12.452Z,9.30
2019-02-21T11:23:40.985Z,9.30
2019-02-21T11:26:15.046Z,9.20
2019-02-21T11:31:56.593Z,9.00
2019-02-21T11:35:15.627Z,9.20
2019-02-21T11:37:46.895Z,9.00
2019-02-21T11:40:25.725Z,9.10
2019-02-21T11:50:25.045Z,9.20
2019-02-21T11:53:10.738Z,9.30
2019-02-21T11:55:57.446Z,9.50
2019-02-21T11:58:32.516Z,9.70
2019-02-21T12:01:05.008Z,9.80
2019-02-21T12:03:34.009Z,9.60
2019-02-21T12:06:15.120Z,9.60
2019-02-21T12:09:17.065Z,9.60
2019-02-21T12:12:19.796Z,9.90
2019-02-21T12:15:29.034Z,10.10
2019-02-21T12:18:03.365Z,10.00
2019-02-21T12:20:39.010Z,9.90
2019-02-21T12:23:10.783Z,10.10
2019-02-21T12:25:56.786Z,10.10
2019-02-21T12:28:59.433Z,10.10
2019-02-21T12:31:38.627Z,10.30
2019-02-21T12:34:21.346Z,10.50
2019-02-21T12:37:12.045Z,10.50
2019-02-21T12:39:45.125Z,10.30
2019-02-21T12:42:23.953Z,10.40
2019-02-21T12:44:52.691Z,10.30
2019-02-21T12:47:31.764Z,10.40
2019-02-21T12:50:25.155Z,10.60
2019-02-21T12:52:56.014Z,10.60
2019-02-21T12:55:37.173Z,10.60
2019-02-21T12:58:20.915Z,10.50
2019-02-21T13:00:51.120Z,10.50
2019-02-21T13:03:21.996Z,10.40
2019-02-21T13:05:51.568Z,10.60
2019-02-21T13:08:19.807Z,10.70
2019-02-21T13:10:47.688Z,10.60
2019-02-21T13:13:18.535Z,10.50
2019-02-21T13:16:40.103Z,10.50
2019-02-21T13:19:11.244Z,10.30
2019-02-21T13:26:26.744Z,10.20
2019-02-21T13:29:30.334Z,10.20
2019-02-21T13:32:43.525Z,10.60
2019-02-21T13:38:34.860Z,10.80
2019-02-21T13:41:05.391Z,10.80
2019-02-21T13:44:34.295Z,10.80
2019-02-21T13:47:39.465Z,10.70
2019-02-21T13:50:51.327Z,10.60
2019-02-21T13:53:46.605Z,10.70
2019-02-21T13:56:39.507Z,10.60
2019-02-21T13:59:19.108Z,10.70
2019-02-21T14:02:27.090Z,10.60
2019-02-21T14:05:21.990Z,10.50
2019-02-21T14:08:25.530Z,10.50
2019-02-21T14:11:17.373Z,10.50
2019-02-21T14:14:19.624Z,10.40
2019-02-21T14:21:09.939Z,10.60
2019-02-21T14:23:37.581Z,10.50
2019-02-21T14:26:13.096Z,10.40
2019-02-21T14:28:44.990Z,10.40
2019-02-21T14:31:13.327Z,10.60
2019-02-21T14:33:58.829Z,10.60
2019-02-21T14:37:19.446Z,10.60
2019-02-21T14:40:08.783Z,10.60
2019-02-21T14:42:48.350Z,10.60
2019-02-21T14:45:20.194Z,10.80
2019-02-21T14:48:21.634Z,10.70
2019-02-21T14:50:53.931Z,10.70
2019-02-21T14:53:37.717Z,10.80
2019-02-21T14:56:23.935Z,10.70
2019-02-21T14:59:15.584Z,10.70
2019-02-21T15:01:49.351Z,10.60
2019-02-21T15:05:38.052Z,10.70
2019-02-21T15:12:11.844Z,10.60
2019-02-21T15:14:42.283Z,10.40
2019-02-21T15:17:25.351Z,10.40
2019-02-21T15:20:12.730Z,10.40
2019-02-21T15:23:05.163Z,10.40
2019-02-21T15:25:46.387Z,10.30
2019-02-21T15:28:23.280Z,10.30
2019-02-21T15:31:06.860Z,10.30
2019-02-21T15:33:50.215Z,10.20
2019-02-21T15:36:41.938Z,10.20
2019-02-21T15:39:25.971Z,10.20
2019-02-21T15:41:54.422Z,10.20
2019-02-21T15:44:25.811Z,10.20
2019-02-21T15:46:56.411Z,10.30
2019-02-21T15:49:31.280Z,10.30
2019-02-21T15:56:17.759Z,10.40
2019-02-21T15:58:50.792Z,10.30
2019-02-21T16:05:09.141Z,10.20
2019-02-21T16:07:39.974Z,10.30
2019-02-21T16:10:19.132Z,10.20
2019-02-21T16:13:07.019Z,10.10
2019-02-21T16:15:43.081Z,10.10
2019-02-21T16:18:21.584Z,10.20
2019-02-21T16:21:03.614Z,10.30
2019-02-21T16:23:35.614Z,10.30
2019-02-21T16:26:06.447Z,10.30
2019-02-21T16:28:34.531Z,10.40
2019-02-21T16:31:04.203Z,10.30
2019-02-21T16:33:52.072Z,10.30
2019-02-21T16:36:19.763Z,10.30
2019-02-21T16:38:49.145Z,10.20
2019-02-21T16:41:51.310Z,10.20
2019-02-21T16:44:43.213Z,10.20
2019-02-21T16:47:12.247Z,10.10
2019-02-21T16:49:42.631Z,10.10
2019-02-21T16:52:15.842Z,10.10
2019-02-21T16:55:08.858Z,10.10
2019-02-21T16:57:53.466Z,10.00
2019-02-21T17:00:51.327Z,10.00
2019-02-21T17:03:45.890Z,9.90
2019-02-21T17:06:38.630Z,9.90
2019-02-21T17:09:58.058Z,9.90
2019-02-21T17:12:56.313Z,9.90
2019-02-21T17:21:29.135Z,9.70
2019-02-21T17:25:01.750Z,9.70
2019-02-21T17:31:14.197Z,9.70
2019-02-21T17:34:47.743Z,9.60
2019-02-21T17:37:29.994Z,9.60
2019-02-21T17:40:10.700Z,9.50
2019-02-21T17:42:45.979Z,9.40
2019-02-21T17:45:21.898Z,9.50
2019-02-21T17:48:56.392Z,9.40
2019-02-21T17:51:30.256Z,9.40
2019-02-21T17:54:07.403Z,9.30
2019-02-21T17:57:14.928Z,9.30
2019-02-21T17:59:52.653Z,9.30
2019-02-21T18:02:53.935Z,9.30
2019-02-21T18:05:46.632Z,9.30
2019-02-21T18:08:31.096Z,9.30
2019-02-21T18:11:26.673Z,9.30
2019-02-21T18:14:07.340Z,9.30
2019-02-21T18:16:40.169Z,9.30
2019-02-21T18:19:22.814Z,9.20
2019-02-21T18:21:59.476Z,9.20
2019-02-21T18:25:20.822Z,9.20
2019-02-21T18:28:22.923Z,9.10
2019-02-21T18:31:04.797Z,9.10
2019-02-21T18:34:52.234Z,9.10
2019-02-21T18:37:24.204Z,9.20
2019-02-21T18:39:59.081Z,9.20
2019-02-21T18:42:26.703Z,9.20
2019-02-21T18:45:13.449Z,9.10
2019-02-21T18:47:43.503Z,9.10
2019-02-21T18:50:14.430Z,9.10
2019-02-21T18:53:09.732Z,9.10
2019-02-21T18:55:58.180Z,9.00
2019-02-21T18:58:28.728Z,9.00
2019-02-21T19:00:59.015Z,8.90
2019-02-21T19:03:26.701Z,8.90
2019-02-21T19:05:56.806Z,8.90
2019-02-21T19:08:24.707Z,8.90
2019-02-21T19:11:05.787Z,9.00
2019-02-21T19:13:39.966Z,8.90
2019-02-21T19:16:19.499Z,8.90
2019-02-21T19:18:54.824Z,8.90
2019-02-21T19:21:26.688Z,9.00
2019-02-21T19:23:58.764Z,8.90
2019-02-21T19:26:30.411Z,8.90
2019-02-21T19:29:01.780Z,8.90
2019-02-21T19:31:32.322Z,8.90
2019-02-21T19:34:04.390Z,8.90
2019-02-21T19:36:39.292Z,9.00
2019-02-21T19:39:10.954Z,9.00
2019-02-21T19:41:45.031Z,9.00
2019-02-21T19:44:13.093Z,9.00
2019-02-21T19:46:41.164Z,9.00
2019-02-21T19:49:09.160Z,9.00
2019-02-21T19:51:37.773Z,9.00
2019-02-21T19:54:06.481Z,8.90
2019-02-21T19:56:36.269Z,8.90
2019-02-21T19:59:09.423Z,8.90
2019-02-21T20:01:45.370Z,8.90
2019-02-21T20:04:18.038Z,8.90
2019-02-21T20:06:49.251Z,8.90
2019-02-21T20:09:20.355Z,8.90
2019-02-21T20:12:29.344Z,8.90
2019-02-21T20:15:19.280Z,8.90
2019-02-21T20:17:57.447Z,8.80
2019-02-21T20:24:05.262Z,8.80
2019-02-21T20:27:17.136Z,8.80
2019-02-21T20:30:27.653Z,8.80
2019-02-21T20:33:00.855Z,8.80
2019-02-21T20:35:52.809Z,8.80
2019-02-21T20:38:34.389Z,8.80
2019-02-21T20:41:07.864Z,8.80
2019-02-21T20:43:54.859Z,8.70
2019-02-21T20:46:28.742Z,8.80
2019-02-21T20:49:20.169Z,8.70
2019-02-21T20:51:53.310Z,8.80
2019-02-21T20:54:26.534Z,8.80
2019-02-21T20:56:55.274Z,8.80
2019-02-21T20:59:40.304Z,8.70
2019-02-21T21:02:19.765Z,8.70
2019-02-21T21:04:55.548Z,8.70
2019-02-21T21:07:27.335Z,8.80
2019-02-21T21:09:57.262Z,8.90
2019-02-21T21:12:40.929Z,8.80
2019-02-21T21:15:15.981Z,8.80
2019-02-21T21:17:57.140Z,8.90
2019-02-21T21:20:38.139Z,8.90
2019-02-21T21:23:26.454Z,8.90
2019-02-21T21:26:06.411Z,8.80
2019-02-21T21:28:38.133Z,8.80
2019-02-21T21:31:09.234Z,8.80
2019-02-21T21:33:39.902Z,8.80
2019-02-21T21:36:16.979Z,8.80
2019-02-21T21:38:54.205Z,8.80
2019-02-21T21:41:22.360Z,8.80
2019-02-21T21:43:56.917Z,8.80
2019-02-21T21:46:46.317Z,8.80
2019-02-21T21:49:24.938Z,8.70
2019-02-21T21:52:56.074Z,8.70
2019-02-21T21:55:24.693Z,8.70
2019-02-21T21:58:03.594Z,8.70
2019-02-21T22:00:31.866Z,8.80
2019-02-21T22:02:59.618Z,8.70
2019-02-21T22:05:28.309Z,8.80
2019-02-21T22:07:56.225Z,8.80
2019-02-21T22:10:29.056Z,8.70
2019-02-21T22:12:59.830Z,8.80
2019-02-21T22:15:30.362Z,8.80
2019-02-21T22:17:59.250Z,8.80
2019-02-21T22:20:35.221Z,8.80
2019-02-21T22:23:05.483Z,8.80
2019-02-21T22:25:37.276Z,8.80
2019-02-21T22:28:07.016Z,8.80
2019-02-21T22:30:36.439Z,8.70
2019-02-21T22:33:04.765Z,8.80
2019-02-21T22:35:34.564Z,8.80
2019-02-21T22:38:05.807Z,8.80
2019-02-21T22:40:35.274Z,8.80
2019-02-21T22:43:03.794Z,8.80
2019-02-21T22:45:33.325Z,8.80
2019-02-21T22:48:09.545Z,8.80
2019-02-21T22:50:41.759Z,8.90
2019-02-21T22:53:10.191Z,8.90
2019-02-21T22:55:38.437Z,8.90
2019-02-21T22:58:06.991Z,9.00
2019-02-21T23:01:23.054Z,8.90
2019-02-21T23:04:36.114Z,9.00
2019-02-21T23:07:29.859Z,8.90
2019-02-21T23:09:58.287Z,8.90
2019-02-21T23:12:28.141Z,8.90
2019-02-21T23:14:57.893Z,9.00
2019-02-21T23:17:27.781Z,9.00
2019-02-21T23:19:57.623Z,9.00
2019-02-21T23:22:30.434Z,9.00
2019-02-21T23:24:59.543Z,9.00
2019-02-21T23:27:27.660Z,9.00
2019-02-21T23:30:05.425Z,8.90
2019-02-21T23:32:40.770Z,8.90
2019-02-21T23:35:11.960Z,8.90
2019-02-21T23:37:40.717Z,8.90
2019-02-21T23:40:10.256Z,8.90
2019-02-21T23:42:38.463Z,8.90
2019-02-21T23:45:07.743Z,8.90
2019-02-21T23:47:35.889Z,8.90
2019-02-21T23:50:06.254Z,8.90
2019-02-21T23:52:34.771Z,8.90
2019-02-21T23:55:02.910Z,8.90
2019-02-21T23:57:31.289Z,8.90
